createdAt,value
2018-06-17T00:00:04.760Z,1012.12
2018-06-17T00:01:04.372Z,1012.12
2018-06-17T00:02:04.601Z,1012.17
2018-06-17T00:03:05.087Z,1012.15
2018-06-17T00:04:04.165Z,1012.13
2018-06-17T00:05:04.221Z,1012.11
2018-06-17T00:06:04.835Z,1012.11
2018-06-17T00:07:04.768Z,1012.16
2018-06-17T00:09:04.876Z,1012.19
2018-06-17T00:10:04.766Z,1012.19
2018-06-17T00:11:04.643Z,1012.14
2018-06-17T00:12:04.444Z,1012.12
2018-06-17T00:13:04.416Z,1012.16
2018-06-17T00:14:04.490Z,1012.11
2018-06-17T00:15:04.731Z,1012.19
2018-06-17T00:17:04.719Z,1012.21
2018-06-17T00:18:04.920Z,1012.24
2018-06-17T00:19:04.648Z,1012.33
2018-06-17T00:20:04.687Z,1012.27
2018-06-17T00:21:05.315Z,1012.29
2018-06-17T00:23:04.776Z,1012.24
2018-06-17T00:24:04.769Z,1012.26
2018-06-17T00:25:04.838Z,1012.23
2018-06-17T00:27:05.109Z,1012.26
2018-06-17T00:28:04.890Z,1012.24
2018-06-17T00:29:04.922Z,1012.24
2018-06-17T00:30:04.948Z,1012.28
2018-06-17T00:31:04.979Z,1012.24
2018-06-17T00:32:05.016Z,1012.25
2018-06-17T00:33:05.298Z,1012.18
2018-06-17T00:34:05.076Z,1012.15
2018-06-17T00:35:05.115Z,1012.16
2018-06-17T00:36:05.147Z,1012.18
2018-06-17T00:37:05.177Z,1012.17
2018-06-17T00:38:05.209Z,1012.23
2018-06-17T00:39:05.595Z,1012.25
2018-06-17T00:40:05.269Z,1012.23
2018-06-17T00:41:05.304Z,1012.21
2018-06-17T00:42:05.381Z,1012.22
2018-06-17T00:43:05.370Z,1012.21
2018-06-17T00:44:05.616Z,1012.19
2018-06-17T00:45:05.733Z,1012.16
2018-06-17T00:46:05.455Z,1012.14
2018-06-17T00:47:05.545Z,1012.15
2018-06-17T00:48:05.567Z,1012.15
2018-06-17T00:49:05.602Z,1012.14
2018-06-17T00:50:05.584Z,1012.21
2018-06-17T00:51:05.933Z,1012.22
2018-06-17T00:52:05.646Z,1012.20
2018-06-17T00:53:05.676Z,1012.20
2018-06-17T00:54:05.735Z,1012.21
2018-06-17T00:55:05.740Z,1012.21
2018-06-17T00:56:05.772Z,1012.22
2018-06-17T00:57:06.053Z,1012.23
2018-06-17T00:58:05.835Z,1012.22
2018-06-17T00:59:05.874Z,1012.26
2018-06-17T01:00:05.896Z,1012.28
2018-06-17T01:01:05.930Z,1012.25
2018-06-17T01:02:05.963Z,1012.22
2018-06-17T01:03:06.244Z,1012.21
2018-06-17T01:04:06.023Z,1012.22
2018-06-17T01:05:06.058Z,1012.19
2018-06-17T01:06:06.088Z,1012.20
2018-06-17T01:07:06.120Z,1012.18
2018-06-17T01:08:06.149Z,1012.16
2018-06-17T01:09:06.435Z,1012.21
2018-06-17T01:10:06.216Z,1012.21
2018-06-17T01:11:06.254Z,1012.24
2018-06-17T01:12:06.293Z,1012.30
2018-06-17T01:13:06.370Z,1012.29
2018-06-17T01:14:06.340Z,1012.32
2018-06-17T01:15:06.638Z,1012.31
2018-06-17T01:16:06.402Z,1012.31
2018-06-17T01:17:06.440Z,1012.28
2018-06-17T01:18:06.465Z,1012.27
2018-06-17T01:19:06.519Z,1012.31
2018-06-17T01:20:06.529Z,1012.29
2018-06-17T01:21:06.819Z,1012.36
2018-06-17T01:22:06.601Z,1012.33
2018-06-17T01:23:06.623Z,1012.36
2018-06-17T01:24:06.656Z,1012.39
2018-06-17T01:25:06.690Z,1012.40
2018-06-17T01:26:06.721Z,1012.38
2018-06-17T01:27:07.051Z,1012.40
2018-06-17T01:28:06.784Z,1012.41
2018-06-17T01:29:06.827Z,1012.41
2018-06-17T01:30:06.847Z,1012.38
2018-06-17T01:31:06.885Z,1012.37
2018-06-17T01:32:06.915Z,1012.40
2018-06-17T01:33:06.938Z,1012.35
2018-06-17T01:34:07.335Z,1012.33
2018-06-17T01:35:07.001Z,1012.32
2018-06-17T01:36:07.033Z,1012.29
2018-06-17T01:37:07.064Z,1012.26
2018-06-17T01:38:07.101Z,1012.29
2018-06-17T01:39:07.130Z,1012.32
2018-06-17T01:40:07.218Z,1012.31
2018-06-17T01:41:07.489Z,1012.34
2018-06-17T01:42:07.230Z,1012.37
2018-06-17T01:43:07.253Z,1012.35
2018-06-17T01:44:07.296Z,1012.39
2018-06-17T01:45:07.314Z,1012.40
2018-06-17T01:46:07.664Z,1012.43
2018-06-17T01:47:07.377Z,1012.41
2018-06-17T01:48:07.666Z,1012.45
2018-06-17T01:49:07.440Z,1012.44
2018-06-17T01:50:07.495Z,1012.45
2018-06-17T01:51:07.504Z,1012.43
2018-06-17T01:52:07.534Z,1012.44
2018-06-17T01:53:07.566Z,1012.41
2018-06-17T01:54:07.597Z,1012.37
2018-06-17T01:55:07.950Z,1012.38
2018-06-17T01:56:07.671Z,1012.36
2018-06-17T01:57:07.690Z,1012.36
2018-06-17T01:58:07.722Z,1012.34
2018-06-17T01:59:07.758Z,1012.33
2018-06-17T02:00:08.136Z,1012.28
2018-06-17T02:01:07.817Z,1012.29
2018-06-17T02:02:08.148Z,1012.32
2018-06-17T02:03:07.881Z,1012.29
2018-06-17T02:04:08.170Z,1012.30
2018-06-17T02:05:07.942Z,1012.28
2018-06-17T02:06:07.968Z,1012.24
2018-06-17T02:07:08.018Z,1012.26
2018-06-17T02:08:08.033Z,1012.27
2018-06-17T02:09:08.422Z,1012.28
2018-06-17T02:11:08.147Z,1012.24
2018-06-17T02:12:08.155Z,1012.19
2018-06-17T02:13:08.193Z,1012.17
2018-06-17T02:14:08.218Z,1012.23
2018-06-17T02:15:08.247Z,1012.22
2018-06-17T02:16:08.592Z,1012.24
2018-06-17T02:17:08.310Z,1012.30
2018-06-17T02:18:08.345Z,1012.32
2018-06-17T02:19:08.371Z,1012.29
2018-06-17T02:20:08.458Z,1012.29
2018-06-17T02:21:08.435Z,1012.29
2018-06-17T02:22:08.468Z,1012.28
2018-06-17T02:23:08.744Z,1012.28
2018-06-17T02:24:08.607Z,1012.32
2018-06-17T02:25:08.559Z,1012.30
2018-06-17T02:26:08.952Z,1012.34
2018-06-17T02:27:08.624Z,1012.33
2018-06-17T02:28:08.700Z,1012.32
2018-06-17T02:31:08.993Z,1012.34
2018-06-17T02:32:08.776Z,1012.34
2018-06-17T02:33:08.855Z,1012.35
2018-06-17T02:34:08.834Z,1012.32
2018-06-17T02:35:08.885Z,1012.29
2018-06-17T02:36:08.903Z,1012.34
2018-06-17T02:37:08.928Z,1012.32
2018-06-17T02:38:09.211Z,1012.35
2018-06-17T02:39:09.351Z,1012.37
2018-06-17T02:40:09.022Z,1012.43
2018-06-17T02:42:09.159Z,1012.45
2018-06-17T02:43:09.137Z,1012.49
2018-06-17T02:44:09.148Z,1012.52
2018-06-17T02:45:09.456Z,1012.47
2018-06-17T02:46:09.212Z,1012.51
2018-06-17T02:47:09.252Z,1012.48
2018-06-17T02:48:09.320Z,1012.49
2018-06-17T02:49:09.372Z,1012.51
2018-06-17T02:50:09.336Z,1012.48
2018-06-17T02:51:09.888Z,1012.52
2018-06-17T02:52:09.406Z,1012.49
2018-06-17T02:53:09.446Z,1012.52
2018-06-17T02:54:09.474Z,1012.55
2018-06-17T02:55:09.702Z,1012.50
2018-06-17T02:56:09.542Z,1012.51
2018-06-17T02:57:09.811Z,1012.53
2018-06-17T02:58:09.604Z,1012.53
2018-06-17T02:59:09.690Z,1012.54
2018-06-17T03:00:09.716Z,1012.55
2018-06-17T03:01:09.755Z,1012.58
2018-06-17T03:02:09.722Z,1012.54
2018-06-17T03:03:10.001Z,1012.59
2018-06-17T03:04:09.785Z,1012.56
2018-06-17T03:05:09.846Z,1012.61
2018-06-17T03:06:09.901Z,1012.61
2018-06-17T03:07:09.932Z,1012.60
2018-06-17T03:08:09.963Z,1012.61
2018-06-17T03:09:10.244Z,1012.54
2018-06-17T03:10:09.987Z,1012.59
2018-06-17T03:11:10.015Z,1012.61
2018-06-17T03:12:10.041Z,1012.60
2018-06-17T03:13:10.073Z,1012.58
2018-06-17T03:14:10.103Z,1012.59
2018-06-17T03:15:10.440Z,1012.59
2018-06-17T03:16:10.168Z,1012.60
2018-06-17T03:17:10.203Z,1012.63
2018-06-17T03:18:10.236Z,1012.63
2018-06-17T03:19:10.346Z,1012.65
2018-06-17T03:20:10.296Z,1012.62
2018-06-17T03:21:10.639Z,1012.64
2018-06-17T03:22:10.365Z,1012.63
2018-06-17T03:23:10.440Z,1012.65
2018-06-17T03:24:10.676Z,1012.66
2018-06-17T03:25:10.519Z,1012.65
2018-06-17T03:26:10.547Z,1012.75
2018-06-17T03:27:10.826Z,1012.70
2018-06-17T03:28:10.559Z,1012.71
2018-06-17T03:30:10.824Z,1012.69
2018-06-17T03:31:10.655Z,1012.65
2018-06-17T03:32:10.686Z,1012.60
2018-06-17T03:33:11.011Z,1012.64
2018-06-17T03:34:10.749Z,1012.64
2018-06-17T03:35:10.840Z,1012.62
2018-06-17T03:36:10.824Z,1012.61
2018-06-17T03:37:10.848Z,1012.61
2018-06-17T03:38:10.934Z,1012.59
2018-06-17T03:39:11.169Z,1012.58
2018-06-17T03:40:10.951Z,1012.54
2018-06-17T03:41:10.982Z,1012.51
2018-06-17T03:42:11.009Z,1012.56
2018-06-17T03:43:11.043Z,1012.58
2018-06-17T03:44:11.073Z,1012.55
2018-06-17T03:45:11.610Z,1012.62
2018-06-17T03:46:11.155Z,1012.60
2018-06-17T03:47:11.222Z,1012.56
2018-06-17T03:48:11.204Z,1012.56
2018-06-17T03:49:11.326Z,1012.56
2018-06-17T03:50:11.405Z,1012.56
2018-06-17T03:51:11.556Z,1012.65
2018-06-17T03:52:11.351Z,1012.58
2018-06-17T03:53:11.375Z,1012.58
2018-06-17T03:55:11.445Z,1012.61
2018-06-17T03:56:11.518Z,1012.64
2018-06-17T03:57:11.806Z,1012.65
2018-06-17T03:58:11.583Z,1012.70
2018-06-17T03:59:11.591Z,1012.74
2018-06-17T04:00:11.754Z,1012.74
2018-06-17T04:01:11.645Z,1012.73
2018-06-17T04:02:11.736Z,1012.74
2018-06-17T04:03:11.948Z,1012.71
2018-06-17T04:04:11.794Z,1012.73
2018-06-17T04:05:11.785Z,1012.76
2018-06-17T04:06:11.803Z,1012.76
2018-06-17T04:07:11.824Z,1012.71
2018-06-17T04:08:11.872Z,1012.69
2018-06-17T04:09:11.892Z,1012.72
2018-06-17T04:10:12.211Z,1012.71
2018-06-17T04:11:11.970Z,1012.69
2018-06-17T04:12:12.001Z,1012.68
2018-06-17T04:13:12.036Z,1012.67
2018-06-17T04:14:12.117Z,1012.69
2018-06-17T04:15:12.102Z,1012.70
2018-06-17T04:16:12.189Z,1012.78
2018-06-17T04:17:12.414Z,1012.78
2018-06-17T04:18:12.198Z,1012.79
2018-06-17T04:19:12.220Z,1012.79
2018-06-17T04:20:12.320Z,1012.79
2018-06-17T04:21:12.335Z,1012.78
2018-06-17T04:22:12.314Z,1012.78
2018-06-17T04:23:12.348Z,1012.78
2018-06-17T04:24:12.687Z,1012.80
2018-06-17T04:25:12.412Z,1012.82
2018-06-17T04:26:12.446Z,1012.79
2018-06-17T04:27:12.475Z,1012.79
2018-06-17T04:28:12.509Z,1012.82
2018-06-17T04:29:12.543Z,1012.81
2018-06-17T04:30:12.590Z,1012.81
2018-06-17T04:31:12.909Z,1012.81
2018-06-17T04:32:12.655Z,1012.85
2018-06-17T04:33:12.674Z,1012.82
2018-06-17T04:34:12.708Z,1012.82
2018-06-17T04:35:12.741Z,1012.80
2018-06-17T04:36:12.776Z,1012.83
2018-06-17T04:37:12.803Z,1012.81
2018-06-17T04:38:13.188Z,1012.80
2018-06-17T04:39:12.869Z,1012.79
2018-06-17T04:40:12.909Z,1012.75
2018-06-17T04:41:12.949Z,1012.76
2018-06-17T04:42:12.973Z,1012.78
2018-06-17T04:43:13.063Z,1012.79
2018-06-17T04:44:13.044Z,1012.78
2018-06-17T04:45:13.317Z,1012.75
2018-06-17T04:46:13.102Z,1012.79
2018-06-17T04:47:13.132Z,1012.77
2018-06-17T04:48:13.166Z,1012.81
2018-06-17T04:49:13.213Z,1012.79
2018-06-17T04:50:13.246Z,1012.80
2018-06-17T04:51:13.286Z,1012.82
2018-06-17T04:52:13.554Z,1012.80
2018-06-17T04:53:13.348Z,1012.77
2018-06-17T04:54:13.371Z,1012.75
2018-06-17T04:55:13.412Z,1012.73
2018-06-17T04:56:13.438Z,1012.71
2018-06-17T04:57:13.477Z,1012.76
2018-06-17T04:58:13.546Z,1012.80
2018-06-17T04:59:13.787Z,1012.76
2018-06-17T05:00:13.565Z,1012.77
2018-06-17T05:01:13.605Z,1012.76
2018-06-17T05:02:13.631Z,1012.75
2018-06-17T05:03:13.679Z,1012.74
2018-06-17T05:04:13.895Z,1012.76
2018-06-17T05:05:13.808Z,1012.74
2018-06-17T05:06:14.059Z,1012.75
2018-06-17T05:07:13.800Z,1012.78
2018-06-17T05:08:13.828Z,1012.80
2018-06-17T05:09:13.875Z,1012.75
2018-06-17T05:10:13.938Z,1012.78
2018-06-17T05:11:13.929Z,1012.81
2018-06-17T05:12:13.958Z,1012.76
2018-06-17T05:13:14.293Z,1012.80
2018-06-17T05:14:14.026Z,1012.75
2018-06-17T05:15:14.063Z,1012.77
2018-06-17T05:16:14.092Z,1012.77
2018-06-17T05:17:14.352Z,1012.74
2018-06-17T05:18:14.156Z,1012.73
2018-06-17T05:19:14.193Z,1012.72
2018-06-17T05:20:14.676Z,1012.74
2018-06-17T05:21:14.271Z,1012.76
2018-06-17T05:22:14.342Z,1012.78
2018-06-17T05:23:14.324Z,1012.79
2018-06-17T05:24:14.378Z,1012.81
2018-06-17T05:25:14.418Z,1012.82
2018-06-17T05:26:14.720Z,1012.82
2018-06-17T05:27:14.458Z,1012.80
2018-06-17T05:28:14.539Z,1012.83
2018-06-17T05:29:14.521Z,1012.83
2018-06-17T05:30:14.637Z,1012.85
2018-06-17T05:31:14.589Z,1012.87
2018-06-17T05:32:14.875Z,1012.85
2018-06-17T05:33:14.653Z,1012.86
2018-06-17T05:34:14.688Z,1012.87
2018-06-17T05:35:14.719Z,1012.81
2018-06-17T05:36:14.755Z,1012.79
2018-06-17T05:37:14.786Z,1012.80
2018-06-17T05:38:15.079Z,1012.83
2018-06-17T05:39:14.866Z,1012.87
2018-06-17T05:41:14.975Z,1012.87
2018-06-17T05:42:14.957Z,1012.83
2018-06-17T05:43:14.991Z,1012.82
2018-06-17T05:44:15.343Z,1012.84
2018-06-17T05:45:15.055Z,1012.83
2018-06-17T05:46:15.136Z,1012.84
2018-06-17T05:47:15.202Z,1012.87
2018-06-17T05:48:15.189Z,1012.91
2018-06-17T05:49:15.238Z,1012.91
2018-06-17T05:50:15.473Z,1012.90
2018-06-17T05:52:15.338Z,1012.90
2018-06-17T05:53:15.349Z,1012.93
2018-06-17T05:54:15.406Z,1012.93
2018-06-17T05:55:15.434Z,1012.95
2018-06-17T05:56:15.722Z,1012.93
2018-06-17T05:57:15.559Z,1012.92
2018-06-17T05:58:15.503Z,1012.91
2018-06-17T05:59:15.602Z,1012.92
2018-06-17T06:00:15.606Z,1012.96
2018-06-17T06:01:15.591Z,1012.93
2018-06-17T06:02:16.679Z,1012.92
2018-06-17T06:03:15.959Z,1012.94
2018-06-17T06:04:15.736Z,1012.92
2018-06-17T06:05:15.938Z,1012.96
2018-06-17T06:06:15.809Z,1013.00
2018-06-17T06:07:15.802Z,1013.02
2018-06-17T06:08:16.123Z,1013.01
2018-06-17T06:09:15.903Z,1012.95
2018-06-17T06:10:15.953Z,1012.99
2018-06-17T06:11:16.181Z,1012.98
2018-06-17T06:12:16.027Z,1012.93
2018-06-17T06:13:16.055Z,1012.95
2018-06-17T06:14:16.574Z,1012.95
2018-06-17T06:15:16.064Z,1012.95
2018-06-17T06:16:16.092Z,1013.01
2018-06-17T06:17:16.187Z,1013.00
2018-06-17T06:18:16.159Z,1013.03
2018-06-17T06:19:16.544Z,1013.05
2018-06-17T06:20:16.576Z,1013.05
2018-06-17T06:21:16.264Z,1013.06
2018-06-17T06:22:16.356Z,1013.04
2018-06-17T06:24:16.634Z,1013.08
2018-06-17T06:25:16.798Z,1013.10
2018-06-17T06:26:16.677Z,1013.12
2018-06-17T06:27:16.508Z,1013.14
2018-06-17T06:28:16.566Z,1013.10
2018-06-17T06:29:16.877Z,1013.11
2018-06-17T06:31:16.795Z,1013.04
2018-06-17T06:32:17.185Z,1013.05
2018-06-17T06:33:17.163Z,1013.08
2018-06-17T06:34:16.744Z,1013.07
2018-06-17T06:35:16.736Z,1013.04
2018-06-17T06:36:17.320Z,1013.03
2018-06-17T06:37:16.858Z,1013.04
2018-06-17T06:38:16.831Z,1013.03
2018-06-17T06:39:17.518Z,1012.98
2018-06-17T06:40:16.899Z,1013.03
2018-06-17T06:41:16.980Z,1013.03
2018-06-17T06:42:17.013Z,1013.05
2018-06-17T06:43:16.997Z,1013.06
2018-06-17T06:44:17.077Z,1013.02
2018-06-17T06:45:17.415Z,1013.07
2018-06-17T06:46:17.407Z,1013.05
2018-06-17T06:47:17.186Z,1013.06
2018-06-17T06:48:17.311Z,1013.08
2018-06-17T06:49:17.200Z,1013.06
2018-06-17T06:50:17.282Z,1013.10
2018-06-17T06:51:17.320Z,1013.10
2018-06-17T06:52:17.300Z,1013.07
2018-06-17T06:53:17.585Z,1013.06
2018-06-17T06:54:17.721Z,1013.06
2018-06-17T06:55:17.468Z,1013.07
2018-06-17T06:56:17.506Z,1013.05
2018-06-17T06:57:17.468Z,1013.09
2018-06-17T06:58:17.754Z,1013.08
2018-06-17T06:59:17.533Z,1013.14
2018-06-17T07:00:17.869Z,1013.12
2018-06-17T07:01:18.156Z,1013.18
2018-06-17T07:02:17.701Z,1013.15
2018-06-17T07:03:17.717Z,1013.17
2018-06-17T07:04:17.706Z,1013.24
2018-06-17T07:05:17.787Z,1013.24
2018-06-17T07:06:18.325Z,1013.28
2018-06-17T07:07:18.870Z,1013.28
2018-06-17T07:08:17.895Z,1013.28
2018-06-17T07:09:18.386Z,1013.26
2018-06-17T07:10:17.957Z,1013.29
2018-06-17T07:11:17.989Z,1013.28
2018-06-17T07:12:18.324Z,1013.27
2018-06-17T07:14:18.440Z,1013.32
2018-06-17T07:15:18.127Z,1013.35
2018-06-17T07:16:18.359Z,1013.33
2018-06-17T07:18:18.175Z,1013.37
2018-06-17T07:19:18.272Z,1013.36
2018-06-17T07:20:18.290Z,1013.39
2018-06-17T07:21:18.532Z,1013.40
2018-06-17T07:22:18.320Z,1013.34
2018-06-17T07:23:18.426Z,1013.37
2018-06-17T07:24:18.430Z,1013.40
2018-06-17T07:25:18.467Z,1013.40
2018-06-17T07:26:18.452Z,1013.43
2018-06-17T07:27:18.486Z,1013.38
2018-06-17T07:28:18.827Z,1013.40
2018-06-17T07:29:18.550Z,1013.42
2018-06-17T07:30:18.590Z,1013.40
2018-06-17T07:31:18.616Z,1013.43
2018-06-17T07:32:18.865Z,1013.44
2018-06-17T07:33:18.741Z,1013.49
2018-06-17T07:34:18.917Z,1013.52
2018-06-17T07:35:19.054Z,1013.52
2018-06-17T07:37:18.827Z,1013.54
2018-06-17T07:38:18.907Z,1013.57
2018-06-17T07:39:18.941Z,1013.56
2018-06-17T07:40:18.981Z,1013.58
2018-06-17T07:41:19.009Z,1013.62
2018-06-17T07:42:19.257Z,1013.62
2018-06-17T07:43:19.030Z,1013.60
2018-06-17T07:44:19.109Z,1013.60
2018-06-17T07:45:19.142Z,1013.57
2018-06-17T07:46:19.134Z,1013.57
2018-06-17T07:48:19.493Z,1013.58
2018-06-17T07:49:19.586Z,1013.60
2018-06-17T07:50:19.319Z,1013.61
2018-06-17T07:51:19.295Z,1013.58
2018-06-17T07:53:19.364Z,1013.58
2018-06-17T07:54:19.732Z,1013.57
2018-06-17T07:55:19.690Z,1013.60
2018-06-17T07:56:19.518Z,1013.58
2018-06-17T07:57:19.511Z,1013.58
2018-06-17T07:58:19.550Z,1013.60
2018-06-17T07:59:19.575Z,1013.53
2018-06-17T08:00:19.601Z,1013.57
2018-06-17T08:01:19.687Z,1013.54
2018-06-17T08:02:19.972Z,1013.54
2018-06-17T08:03:19.872Z,1013.58
2018-06-17T08:04:19.941Z,1013.61
2018-06-17T08:05:19.828Z,1013.56
2018-06-17T08:06:19.842Z,1013.62
2018-06-17T08:07:19.849Z,1013.59
2018-06-17T08:08:20.229Z,1013.62
2018-06-17T08:09:19.912Z,1013.64
2018-06-17T08:10:19.959Z,1013.62
2018-06-17T08:11:20.030Z,1013.61
2018-06-17T08:12:20.020Z,1013.59
2018-06-17T08:13:20.101Z,1013.57
2018-06-17T08:14:20.333Z,1013.60
2018-06-17T08:15:20.124Z,1013.63
2018-06-17T08:16:20.166Z,1013.58
2018-06-17T08:17:20.188Z,1013.54
2018-06-17T08:18:20.218Z,1013.58
2018-06-17T08:19:20.338Z,1013.60
2018-06-17T08:20:20.640Z,1013.58
2018-06-17T08:21:20.370Z,1013.60
2018-06-17T08:22:20.814Z,1013.56
2018-06-17T08:23:20.447Z,1013.54
2018-06-17T08:24:20.423Z,1013.60
2018-06-17T08:25:20.457Z,1013.58
2018-06-17T08:27:20.874Z,1013.58
2018-06-17T08:28:20.564Z,1013.58
2018-06-17T08:29:20.650Z,1013.59
2018-06-17T08:30:20.631Z,1013.59
2018-06-17T08:31:20.668Z,1013.62
2018-06-17T08:32:20.745Z,1013.65
2018-06-17T08:33:20.984Z,1013.56
2018-06-17T08:34:20.866Z,1013.64
2018-06-17T08:35:20.806Z,1013.61
2018-06-17T08:36:20.837Z,1013.64
2018-06-17T08:37:20.869Z,1013.63
2018-06-17T08:38:20.912Z,1013.65
2018-06-17T08:39:21.244Z,1013.66
2018-06-17T08:40:20.978Z,1013.64
2018-06-17T08:41:21.008Z,1013.60
2018-06-17T08:42:21.057Z,1013.62
2018-06-17T08:43:21.077Z,1013.57
2018-06-17T08:44:21.114Z,1013.57
2018-06-17T08:45:21.597Z,1013.54
2018-06-17T08:46:21.229Z,1013.51
2018-06-17T08:47:21.280Z,1013.54
2018-06-17T08:48:21.248Z,1013.55
2018-06-17T08:49:21.506Z,1013.54
2018-06-17T08:50:21.317Z,1013.53
2018-06-17T08:51:21.656Z,1013.50
2018-06-17T08:52:21.386Z,1013.51
2018-06-17T08:53:21.424Z,1013.52
2018-06-17T08:55:21.497Z,1013.47
2018-06-17T08:56:21.529Z,1013.43
2018-06-17T08:57:21.866Z,1013.45
2018-06-17T08:58:21.597Z,1013.50
2018-06-17T08:59:21.628Z,1013.50
2018-06-17T09:00:21.680Z,1013.49
2018-06-17T09:01:21.746Z,1013.49
2018-06-17T09:02:21.752Z,1013.47
2018-06-17T09:03:22.018Z,1013.52
2018-06-17T09:04:21.805Z,1013.48
2018-06-17T09:05:21.838Z,1013.53
2018-06-17T09:06:21.874Z,1013.51
2018-06-17T09:07:21.907Z,1013.52
2018-06-17T09:08:21.948Z,1013.54
2018-06-17T09:09:22.635Z,1013.54
2018-06-17T09:10:22.011Z,1013.58
2018-06-17T09:11:22.102Z,1013.55
2018-06-17T09:12:22.841Z,1013.57
2018-06-17T09:13:22.326Z,1013.56
2018-06-17T09:14:22.153Z,1013.55
2018-06-17T09:15:22.548Z,1013.57
2018-06-17T09:16:22.273Z,1013.57
2018-06-17T09:17:22.256Z,1013.55
2018-06-17T09:18:22.294Z,1013.55
2018-06-17T09:19:22.526Z,1013.58
2018-06-17T09:20:22.435Z,1013.50
2018-06-17T09:21:22.744Z,1013.55
2018-06-17T09:22:22.439Z,1013.60
2018-06-17T09:23:22.471Z,1013.54
2018-06-17T09:24:22.512Z,1013.47
2018-06-17T09:25:22.535Z,1013.52
2018-06-17T09:26:22.624Z,1013.53
2018-06-17T09:27:22.605Z,1013.56
2018-06-17T09:28:22.896Z,1013.51
2018-06-17T09:29:22.679Z,1013.54
2018-06-17T09:30:22.760Z,1013.56
2018-06-17T09:31:22.745Z,1013.53
2018-06-17T09:32:23.130Z,1013.54
2018-06-17T09:33:22.831Z,1013.55
2018-06-17T09:34:22.852Z,1013.55
2018-06-17T09:35:23.159Z,1013.57
2018-06-17T09:36:22.924Z,1013.55
2018-06-17T09:37:22.960Z,1013.53
2018-06-17T09:38:22.991Z,1013.56
2018-06-17T09:39:23.029Z,1013.57
2018-06-17T09:40:23.059Z,1013.60
2018-06-17T09:41:23.142Z,1013.57
2018-06-17T09:42:23.378Z,1013.56
2018-06-17T09:43:23.214Z,1013.55
2018-06-17T09:44:23.224Z,1013.56
2018-06-17T09:45:23.282Z,1013.57
2018-06-17T09:46:23.270Z,1013.55
2018-06-17T09:47:23.375Z,1013.57
2018-06-17T09:48:23.388Z,1013.57
2018-06-17T09:49:23.623Z,1013.58
2018-06-17T09:50:23.411Z,1013.60
2018-06-17T09:51:23.478Z,1013.58
2018-06-17T09:52:23.480Z,1013.58
2018-06-17T09:53:23.513Z,1013.62
2018-06-17T09:54:23.551Z,1013.59
2018-06-17T09:55:23.585Z,1013.58
2018-06-17T09:56:23.918Z,1013.58
2018-06-17T09:57:23.708Z,1013.54
2018-06-17T09:58:23.724Z,1013.54
2018-06-17T09:59:23.879Z,1013.62
2018-06-17T10:00:23.765Z,1013.56
2018-06-17T10:01:23.797Z,1013.55
2018-06-17T10:02:23.834Z,1013.58
2018-06-17T10:03:24.118Z,1013.58
2018-06-17T10:04:23.899Z,1013.58
2018-06-17T10:05:23.934Z,1013.57
2018-06-17T10:06:23.974Z,1013.57
2018-06-17T10:07:24.006Z,1013.55
2018-06-17T10:08:24.044Z,1013.62
2018-06-17T10:09:24.075Z,1013.56
2018-06-17T10:10:24.363Z,1013.58
2018-06-17T10:11:24.302Z,1013.53
2018-06-17T10:12:24.182Z,1013.53
2018-06-17T10:13:24.237Z,1013.48
2018-06-17T10:14:24.253Z,1013.54
2018-06-17T10:15:24.286Z,1013.57
2018-06-17T10:16:24.323Z,1013.53
2018-06-17T10:17:24.607Z,1013.51
2018-06-17T10:18:24.397Z,1013.52
2018-06-17T10:19:24.427Z,1013.53
2018-06-17T10:20:24.473Z,1013.52
2018-06-17T10:21:24.505Z,1013.51
2018-06-17T10:22:24.549Z,1013.52
2018-06-17T10:23:24.573Z,1013.46
2018-06-17T10:24:24.854Z,1013.50
2018-06-17T10:25:24.647Z,1013.50
2018-06-17T10:26:24.675Z,1013.47
2018-06-17T10:27:24.735Z,1013.48
2018-06-17T10:28:24.817Z,1013.51
2018-06-17T10:29:24.842Z,1013.46
2018-06-17T10:30:24.818Z,1013.48
2018-06-17T10:31:25.101Z,1013.49
2018-06-17T10:32:24.939Z,1013.49
2018-06-17T10:33:24.963Z,1013.50
2018-06-17T10:34:24.994Z,1013.45
2018-06-17T10:35:24.997Z,1013.54
2018-06-17T10:36:25.028Z,1013.55
2018-06-17T10:37:25.063Z,1013.53
2018-06-17T10:38:25.450Z,1013.54
2018-06-17T10:39:25.132Z,1013.61
2018-06-17T10:40:25.172Z,1013.61
2018-06-17T10:41:25.204Z,1013.62
2018-06-17T10:42:25.240Z,1013.63
2018-06-17T10:43:25.339Z,1013.64
2018-06-17T10:44:25.371Z,1013.59
2018-06-17T10:45:25.597Z,1013.58
2018-06-17T10:46:25.408Z,1013.62
2018-06-17T10:47:25.418Z,1013.56
2018-06-17T10:48:25.450Z,1013.55
2018-06-17T10:49:25.486Z,1013.53
2018-06-17T10:50:25.793Z,1013.56
2018-06-17T10:51:25.864Z,1013.57
2018-06-17T10:52:25.642Z,1013.64
2018-06-17T10:53:25.628Z,1013.60
2018-06-17T10:54:25.667Z,1013.62
2018-06-17T10:55:25.701Z,1013.65
2018-06-17T10:56:25.736Z,1013.67
2018-06-17T10:57:26.069Z,1013.68
2018-06-17T10:58:25.811Z,1013.70
2018-06-17T10:59:25.841Z,1013.72
2018-06-17T11:00:25.929Z,1013.74
2018-06-17T11:01:25.947Z,1013.72
2018-06-17T11:02:25.945Z,1013.73
2018-06-17T11:03:26.233Z,1013.72
2018-06-17T11:04:26.016Z,1013.72
2018-06-17T11:05:26.107Z,1013.70
2018-06-17T11:06:26.086Z,1013.72
2018-06-17T11:07:26.133Z,1013.74
2018-06-17T11:08:26.211Z,1013.67
2018-06-17T11:09:26.445Z,1013.72
2018-06-17T11:10:26.231Z,1013.72
2018-06-17T11:11:26.274Z,1013.67
2018-06-17T11:12:26.298Z,1013.71
2018-06-17T11:13:26.337Z,1013.75
2018-06-17T11:14:26.378Z,1013.77
2018-06-17T11:15:26.659Z,1013.72
2018-06-17T11:16:26.445Z,1013.71
2018-06-17T11:17:26.474Z,1013.67
2018-06-17T11:18:26.511Z,1013.66
2018-06-17T11:19:26.546Z,1013.68
2018-06-17T11:20:26.588Z,1013.70
2018-06-17T11:21:26.870Z,1013.73
2018-06-17T11:22:26.659Z,1013.74
2018-06-17T11:23:26.691Z,1013.72
2018-06-17T11:24:26.722Z,1013.70
2018-06-17T11:25:26.760Z,1013.73
2018-06-17T11:26:26.795Z,1013.76
2018-06-17T11:27:27.093Z,1013.75
2018-06-17T11:28:26.879Z,1013.75
2018-06-17T11:29:26.901Z,1013.77
2018-06-17T11:30:26.946Z,1013.77
2018-06-17T11:31:26.977Z,1013.78
2018-06-17T11:32:27.030Z,1013.78
2018-06-17T11:33:27.293Z,1013.77
2018-06-17T11:34:27.077Z,1013.74
2018-06-17T11:35:27.114Z,1013.77
2018-06-17T11:36:27.197Z,1013.81
2018-06-17T11:37:27.180Z,1013.76
2018-06-17T11:38:27.221Z,1013.78
2018-06-17T11:39:27.505Z,1013.76
2018-06-17T11:40:27.287Z,1013.80
2018-06-17T11:41:27.397Z,1013.74
2018-06-17T11:42:27.358Z,1013.79
2018-06-17T11:43:27.395Z,1013.77
2018-06-17T11:44:27.479Z,1013.76
2018-06-17T11:45:27.733Z,1013.81
2018-06-17T11:46:27.581Z,1013.81
2018-06-17T11:47:27.540Z,1013.84
2018-06-17T11:48:27.572Z,1013.82
2018-06-17T11:49:27.608Z,1013.86
2018-06-17T11:50:27.642Z,1013.84
2018-06-17T11:51:27.954Z,1013.90
2018-06-17T11:52:27.711Z,1013.90
2018-06-17T11:53:27.748Z,1013.93
2018-06-17T11:54:27.784Z,1013.89
2018-06-17T11:55:27.816Z,1013.92
2018-06-17T11:56:27.852Z,1013.96
2018-06-17T11:57:28.143Z,1013.93
2018-06-17T11:58:27.922Z,1013.97
2018-06-17T11:59:27.961Z,1013.97
2018-06-17T12:00:28.002Z,1013.96
2018-06-17T12:01:28.044Z,1013.97
2018-06-17T12:02:28.065Z,1014.03
2018-06-17T12:03:28.414Z,1014.03
2018-06-17T12:04:28.133Z,1014.04
2018-06-17T12:05:28.170Z,1014.07
2018-06-17T12:06:28.409Z,1014.12
2018-06-17T12:07:28.239Z,1014.15
2018-06-17T12:08:28.304Z,1014.11
2018-06-17T12:09:28.561Z,1014.19
2018-06-17T12:10:28.349Z,1014.20
2018-06-17T12:11:28.387Z,1014.20
2018-06-17T12:12:28.420Z,1014.15
2018-06-17T12:13:28.453Z,1014.14
2018-06-17T12:14:28.487Z,1014.21
2018-06-17T12:15:28.545Z,1014.16
2018-06-17T12:16:28.862Z,1014.13
2018-06-17T12:17:28.595Z,1014.10
2018-06-17T12:18:28.631Z,1014.22
2018-06-17T12:19:28.672Z,1014.18
2018-06-17T12:20:28.751Z,1014.14
2018-06-17T12:21:28.942Z,1014.11
2018-06-17T12:22:28.784Z,1014.13
2018-06-17T12:23:29.156Z,1014.19
2018-06-17T12:24:28.875Z,1014.14
2018-06-17T12:25:29.286Z,1014.14
2018-06-17T12:26:28.921Z,1014.18